Adelanto, CA (92301)

3:41 AM PST on December 26, 2014 (GMT -0800)
El Mirage Airport (99CL) | Change Station
CLOSE
Current Station
Personal Weather Station
Location: Adelanto, CA
Elevation: 2880 ft
Nearby Weather Stations

Elev 2880 ft 34.62 °N, 117.60 °W | Updated 3 minutes ago

Clear
Clear
26.3 °F
Feels Like 26 °F
N
2.5
Wind Variable Wind from South
Gusts 4.3 mph

Today
High -- | Low -- °F
--% Chance of Precip.
Yesterday
High -- | Low -- °F
Precip. -- in
6:55 AM 4:46 PM
Waxing Crescent, 25% visible
Pressure 30.12 in
Visibility 10.0 miles
Clouds Clear
Windchill 26 °F
Dew Point 17 °F
Humidity 68%
Rainfall 0.00 in
Snow Depth Not available.
UV 0 out of 12
Pollen 6.60 out of 12
Air Quality Not available.
Flu Activity Not available.
METAR KGXA 261055Z AUTO VRB03KT 10SM CLR M02/M08 A3000 RMK AO2 PK WND 35042/1020 SLP197 T10241085 PWINO FZRANO $

More Conditions Fewer Conditions

Pressure 30.12 in
Visibility 10.0 miles
Clouds Clear
Windchill 26 °F
Dew Point 17 °F
Humidity 68%
Rainfall 0.00 in
Snow Depth Not available.
UV 0 out of 12
Pollen 6.60 out of 12
Air Quality Not available.
Flu Activity Not available.
METAR KGXA 261055Z AUTO VRB03KT 10SM CLR M02/M08 A3000 RMK AO2 PK WND 35042/1020 SLP197 T10241085 PWINO FZRANO $

More Conditions Fewer Conditions

10-Day Weather Forecast

Almanac

Astronomy

Dec. 26, 2014 Rise Set
Actual Time
Civil Twilight
Nautical Twilight
Astronomical Twilight
Moon
Length of Visible Light
Length of Day
Tomorrow will be .
, % of the Moon is Illuminated

Today's Extremes

State Highs State Lows

Community

WunderPhotos

Upload Photos

1,780,580 photos uploaded!

WunderBlogs® & News

Nearby

Air Quality

  Air Quality AQ Index Pollutant
Not available.

Snow Depth

Station Depth Elevation

Earthquake Activity

City Distance Mag. Time & Date
Minimum magnitude displayed is 2.5.

Coastal Water Temperatures

Place Temperature

Nearby Weather Stations